createdAt,value
2022-07-31T00:02:09.828Z,54.93
2022-07-31T00:04:37.824Z,54.44
2022-07-31T00:07:06.526Z,54.92
2022-07-31T00:09:52.506Z,53.98
2022-07-31T00:12:23.563Z,53.55
2022-07-31T00:14:51.933Z,52.54
2022-07-31T00:17:20.466Z,52.65
2022-07-31T00:19:48.810Z,52.69
2022-07-31T00:22:16.563Z,52.11
2022-07-31T00:24:44.700Z,51.93
2022-07-31T00:27:12.885Z,51.81
2022-07-31T00:29:40.689Z,50.93
2022-07-31T00:32:08.712Z,51.08
2022-07-31T00:34:36.469Z,51.48
2022-07-31T00:37:05.404Z,52.01
2022-07-31T00:39:33.754Z,52.60
2022-07-31T00:42:01.716Z,53.09
2022-07-31T00:44:29.821Z,52.50
2022-07-31T00:47:00.704Z,52.62
2022-07-31T00:49:37.517Z,54.63
2022-07-31T00:52:06.637Z,52.43
2022-07-31T00:54:35.934Z,53.86
2022-07-31T00:57:04.262Z,52.60
2022-07-31T00:59:33.335Z,53.13
2022-07-31T01:02:01.271Z,52.95
2022-07-31T01:04:31.109Z,54.47
2022-07-31T01:07:01.475Z,54.67
2022-07-31T01:09:30.503Z,55.25
2022-07-31T01:12:03.041Z,54.33
2022-07-31T01:14:39.278Z,54.19
2022-07-31T01:17:09.996Z,54.74
2022-07-31T01:19:47.731Z,54.70
2022-07-31T01:22:32.999Z,53.92
2022-07-31T01:25:27.841Z,52.46
2022-07-31T01:28:15.212Z,51.24
2022-07-31T01:31:27.029Z,52.91
2022-07-31T01:34:16.410Z,52.95
2022-07-31T01:36:52.301Z,52.89
2022-07-31T01:39:21.579Z,53.51
2022-07-31T01:41:52.263Z,56.02
2022-07-31T01:44:24.021Z,57.87
2022-07-31T01:46:53.641Z,58.55
2022-07-31T01:49:22.838Z,60.22
2022-07-31T01:51:51.093Z,60.52
2022-07-31T01:54:23.144Z,61.82
2022-07-31T01:56:55.120Z,63.56
2022-07-31T01:59:24.631Z,65.05
2022-07-31T02:02:10.170Z,64.83
2022-07-31T02:04:39.801Z,66.50
2022-07-31T02:09:52.298Z,68.97
2022-07-31T02:12:33.333Z,71.44
2022-07-31T02:15:06.441Z,72.08
2022-07-31T02:17:37.261Z,70.70
2022-07-31T02:20:25.626Z,69.92
2022-07-31T02:22:57.376Z,69.90
2022-07-31T02:25:26.832Z,69.60
2022-07-31T02:27:59.193Z,69.05
2022-07-31T02:30:38.978Z,68.66
2022-07-31T02:33:19.091Z,71.39
2022-07-31T02:35:54.036Z,72.40
2022-07-31T02:38:26.311Z,73.59
2022-07-31T02:40:58.870Z,74.22
2022-07-31T02:43:29.730Z,73.87
2022-07-31T02:45:59.778Z,73.00
2022-07-31T02:48:29.375Z,72.31
2022-07-31T02:51:02.243Z,71.44
2022-07-31T02:53:31.483Z,72.34
2022-07-31T02:56:05.320Z,71.18
2022-07-31T02:58:42.119Z,69.98
2022-07-31T03:01:17.683Z,69.55
2022-07-31T03:03:45.953Z,68.99
2022-07-31T03:06:14.519Z,68.45
2022-07-31T03:08:43.192Z,69.14
2022-07-31T03:11:13.876Z,68.56
2022-07-31T03:13:43.727Z,68.76
2022-07-31T03:16:12.722Z,70.27
2022-07-31T03:18:41.320Z,70.58
2022-07-31T03:21:11.208Z,71.15
2022-07-31T03:23:39.788Z,72.12
2022-07-31T03:26:17.476Z,72.16
2022-07-31T03:28:45.761Z,73.00
2022-07-31T03:31:14.187Z,73.98
2022-07-31T03:33:42.921Z,75.67
2022-07-31T03:36:11.142Z,74.99
2022-07-31T03:38:42.666Z,74.12
2022-07-31T03:41:25.249Z,73.36
2022-07-31T03:43:54.484Z,72.69
2022-07-31T03:46:23.804Z,73.71
2022-07-31T03:48:53.126Z,74.28
2022-07-31T03:51:22.452Z,73.08
2022-07-31T03:53:51.731Z,71.38
2022-07-31T03:56:46.756Z,70.69
2022-07-31T03:59:19.709Z,69.27
2022-07-31T04:01:56.631Z,68.86
2022-07-31T04:04:59.882Z,68.53
2022-07-31T04:07:28.493Z,69.65
2022-07-31T04:09:56.422Z,69.39
2022-07-31T04:12:24.379Z,71.21
2022-07-31T04:14:52.957Z,71.93
2022-07-31T04:17:20.843Z,71.66
2022-07-31T04:19:49.630Z,71.18
2022-07-31T04:22:17.602Z,70.64
2022-07-31T04:24:45.879Z,70.86
2022-07-31T04:27:48.772Z,69.70
2022-07-31T04:30:18.192Z,68.43
2022-07-31T04:32:48.067Z,67.75
2022-07-31T04:35:22.437Z,68.18
2022-07-31T04:37:50.550Z,66.47
2022-07-31T04:40:20.247Z,66.78
2022-07-31T04:42:48.000Z,65.86
2022-07-31T04:45:16.169Z,66.51
2022-07-31T04:47:44.016Z,66.38
2022-07-31T04:50:12.280Z,64.87
2022-07-31T04:52:55.537Z,63.89
2022-07-31T04:55:24.947Z,63.20
2022-07-31T04:57:53.522Z,63.96
2022-07-31T05:00:22.005Z,61.72
2022-07-31T05:02:50.653Z,60.60
2022-07-31T05:05:18.529Z,58.84
2022-07-31T05:07:47.716Z,57.24
2022-07-31T05:10:38.516Z,56.65
2022-07-31T05:13:06.955Z,55.15
2022-07-31T05:15:35.661Z,54.02
2022-07-31T05:18:03.682Z,54.35
2022-07-31T05:20:52.513Z,53.15
2022-07-31T05:23:51.047Z,52.12
2022-07-31T05:26:29.227Z,51.84
2022-07-31T05:28:59.865Z,51.31
2022-07-31T05:31:28.305Z,51.04
2022-07-31T05:33:59.215Z,50.64
2022-07-31T05:36:28.018Z,49.63
2022-07-31T05:38:55.913Z,50.00
2022-07-31T05:41:42.235Z,49.83
2022-07-31T05:44:28.498Z,49.14
2022-07-31T05:49:26.811Z,48.61
2022-07-31T05:51:56.468Z,47.66
2022-07-31T05:54:24.809Z,47.23
2022-07-31T05:57:11.646Z,47.09
2022-07-31T05:59:59.553Z,46.77
2022-07-31T06:02:39.898Z,50.36
2022-07-31T06:05:29.943Z,55.60
2022-07-31T06:08:01.226Z,58.74
2022-07-31T06:10:33.241Z,57.97
2022-07-31T06:13:00.929Z,58.55
2022-07-31T06:15:32.010Z,59.14
2022-07-31T06:18:02.922Z,57.95
2022-07-31T06:20:31.480Z,58.99
2022-07-31T06:23:00.682Z,57.82
2022-07-31T06:25:38.945Z,57.04
2022-07-31T06:28:10.385Z,55.88
2022-07-31T06:30:40.584Z,52.91
2022-07-31T06:33:08.802Z,53.73
2022-07-31T06:35:44.584Z,51.14
2022-07-31T06:38:33.537Z,48.66
2022-07-31T06:41:40.644Z,48.00
2022-07-31T06:44:27.048Z,48.90
2022-07-31T06:47:16.058Z,47.76
2022-07-31T06:50:03.842Z,48.86
2022-07-31T06:52:38.548Z,49.48
2022-07-31T06:55:07.939Z,50.72
2022-07-31T06:57:37.793Z,50.48
2022-07-31T07:00:15.128Z,50.45
2022-07-31T07:02:49.899Z,51.03
2022-07-31T07:05:18.132Z,50.39
2022-07-31T07:07:49.657Z,49.70
2022-07-31T07:10:17.691Z,49.25
2022-07-31T07:13:00.601Z,49.09
2022-07-31T07:15:33.576Z,50.06
2022-07-31T07:18:01.787Z,49.03
2022-07-31T07:21:01.530Z,51.66
2022-07-31T07:23:29.379Z,52.63
2022-07-31T07:26:15.689Z,52.66
2022-07-31T07:28:44.115Z,52.07
2022-07-31T07:31:12.267Z,55.63
2022-07-31T07:33:42.680Z,57.32
2022-07-31T07:36:31.432Z,54.83
2022-07-31T07:39:04.270Z,54.38
2022-07-31T07:41:34.296Z,51.20
2022-07-31T07:44:02.592Z,50.47
2022-07-31T07:46:31.528Z,48.81
2022-07-31T07:49:04.538Z,48.08
2022-07-31T07:51:59.458Z,47.28
2022-07-31T07:54:33.904Z,46.29
2022-07-31T07:57:21.577Z,45.67
2022-07-31T08:00:10.988Z,45.28
2022-07-31T08:03:46.450Z,45.91
2022-07-31T08:05:38.319Z,45.95
2022-07-31T08:08:07.060Z,45.30
2022-07-31T08:10:56.398Z,45.56
2022-07-31T08:13:40.809Z,44.99
2022-07-31T08:16:23.894Z,45.31
2022-07-31T08:18:55.799Z,45.52
2022-07-31T08:21:24.502Z,45.62
2022-07-31T08:23:52.911Z,45.36
2022-07-31T08:26:21.419Z,44.80
2022-07-31T08:28:51.225Z,44.67
2022-07-31T08:31:24.043Z,44.18
2022-07-31T08:34:30.601Z,43.51
2022-07-31T08:38:01.602Z,43.72
2022-07-31T08:39:52.566Z,41.46
2022-07-31T08:42:20.911Z,42.57
2022-07-31T08:44:49.045Z,42.75
2022-07-31T08:47:20.005Z,41.81
2022-07-31T08:49:50.638Z,42.32
2022-07-31T08:52:25.206Z,42.04
2022-07-31T08:55:54.769Z,42.25
2022-07-31T08:58:07.922Z,42.90
2022-07-31T09:00:36.085Z,43.02
2022-07-31T09:03:05.051Z,42.22
2022-07-31T09:05:45.247Z,41.27
2022-07-31T09:08:16.262Z,41.32
2022-07-31T09:10:50.238Z,40.27
2022-07-31T09:13:20.045Z,41.03
2022-07-31T09:15:52.699Z,40.67
2022-07-31T09:18:24.857Z,40.42
2022-07-31T09:21:06.708Z,40.95
2022-07-31T09:23:46.369Z,41.21
2022-07-31T09:26:15.560Z,41.01
2022-07-31T09:28:46.485Z,40.97
2022-07-31T09:31:15.540Z,38.69
2022-07-31T09:34:00.569Z,39.87
2022-07-31T09:36:34.972Z,38.90
2022-07-31T09:39:27.871Z,37.49
2022-07-31T09:42:16.753Z,38.65
2022-07-31T09:45:24.520Z,39.61
2022-07-31T09:48:08.258Z,39.62
2022-07-31T09:50:36.950Z,39.99
2022-07-31T09:53:06.702Z,39.85
2022-07-31T09:55:36.686Z,38.28
2022-07-31T09:58:04.837Z,38.89
2022-07-31T10:00:39.068Z,39.48
2022-07-31T10:03:08.331Z,36.03
2022-07-31T10:05:38.312Z,34.64
2022-07-31T10:08:07.846Z,34.93
2022-07-31T10:10:55.748Z,34.35
2022-07-31T10:13:46.344Z,33.64
2022-07-31T10:16:15.197Z,34.19
2022-07-31T10:18:57.107Z,35.35
2022-07-31T10:21:54.794Z,33.02
2022-07-31T10:24:31.603Z,33.46
2022-07-31T10:27:10.564Z,31.66
2022-07-31T10:29:41.731Z,31.73
2022-07-31T10:32:10.662Z,32.53
2022-07-31T10:34:49.466Z,29.85
2022-07-31T10:37:53.376Z,31.89
2022-07-31T10:40:54.959Z,30.01
2022-07-31T10:43:27.083Z,30.04
2022-07-31T10:46:09.615Z,31.50
2022-07-31T10:49:08.739Z,29.42
2022-07-31T10:51:55.413Z,29.79
2022-07-31T10:54:58.380Z,29.86
2022-07-31T10:57:56.236Z,30.12
2022-07-31T11:00:39.561Z,29.51
2022-07-31T11:03:25.958Z,29.37
2022-07-31T11:06:42.925Z,30.23
2022-07-31T11:09:31.644Z,30.09
2022-07-31T11:12:19.789Z,28.84
2022-07-31T11:15:24.698Z,29.52
2022-07-31T11:18:26.732Z,29.76
2022-07-31T11:21:38.087Z,29.47
2022-07-31T11:24:03.038Z,29.27
2022-07-31T11:26:41.648Z,27.77
2022-07-31T11:30:01.085Z,28.46
2022-07-31T11:32:15.103Z,26.88
2022-07-31T11:34:54.042Z,27.38
2022-07-31T11:37:41.168Z,26.16
2022-07-31T11:40:14.816Z,26.79
2022-07-31T11:42:46.347Z,23.43
2022-07-31T11:45:17.764Z,22.73
2022-07-31T11:48:11.263Z,22.12
2022-07-31T11:50:43.982Z,22.24
2022-07-31T11:53:13.052Z,21.90
2022-07-31T11:55:47.974Z,22.29
2022-07-31T11:58:18.003Z,21.68
2022-07-31T12:01:06.593Z,22.35
2022-07-31T12:03:37.951Z,22.06
2022-07-31T12:06:08.426Z,23.07
2022-07-31T12:08:38.784Z,22.39
2022-07-31T12:11:09.535Z,21.89
2022-07-31T12:13:39.155Z,22.79
2022-07-31T12:16:09.804Z,22.74
2022-07-31T12:18:51.023Z,22.71
2022-07-31T12:21:20.616Z,21.49
2022-07-31T12:23:53.227Z,20.96
2022-07-31T12:26:33.582Z,21.83
2022-07-31T12:29:04.643Z,21.42
2022-07-31T12:31:48.212Z,21.75
2022-07-31T12:34:28.161Z,21.18
2022-07-31T12:36:59.937Z,20.33
2022-07-31T12:39:47.585Z,20.24
2022-07-31T12:42:30.834Z,20.39
2022-07-31T12:45:19.606Z,20.35
2022-07-31T12:47:53.612Z,19.82
2022-07-31T12:50:22.981Z,20.14
2022-07-31T12:52:51.427Z,19.01
2022-07-31T12:55:20.071Z,19.38
2022-07-31T12:57:51.421Z,19.34
2022-07-31T13:00:23.543Z,18.61
2022-07-31T13:02:53.609Z,19.26
2022-07-31T13:05:23.138Z,18.24
2022-07-31T13:07:51.913Z,16.80
2022-07-31T13:10:24.721Z,17.18
2022-07-31T13:12:53.427Z,17.33
2022-07-31T13:15:29.665Z,17.27
2022-07-31T13:17:59.318Z,16.79
2022-07-31T13:20:27.368Z,17.99
2022-07-31T13:22:55.576Z,17.46
2022-07-31T13:25:23.906Z,17.78
2022-07-31T13:27:51.824Z,16.56
2022-07-31T13:30:19.897Z,16.93
2022-07-31T13:32:47.587Z,17.13
2022-07-31T13:35:24.029Z,17.01
2022-07-31T13:37:56.016Z,16.00
2022-07-31T13:40:43.231Z,16.65
2022-07-31T13:43:11.810Z,17.76
2022-07-31T13:45:40.372Z,16.40
2022-07-31T13:48:10.096Z,15.80
2022-07-31T13:50:42.127Z,15.54
2022-07-31T13:53:10.267Z,15.15
2022-07-31T13:55:38.692Z,14.30
2022-07-31T13:58:07.386Z,13.85
2022-07-31T14:00:35.855Z,12.25
2022-07-31T14:03:03.776Z,13.21
2022-07-31T14:05:32.624Z,12.48
2022-07-31T14:08:32.873Z,13.18
2022-07-31T14:10:57.486Z,11.72
2022-07-31T14:13:25.966Z,11.94
2022-07-31T14:15:54.252Z,10.03
2022-07-31T14:18:23.505Z,9.91
2022-07-31T14:20:52.075Z,11.70
2022-07-31T14:23:19.891Z,11.83
2022-07-31T14:25:47.944Z,11.88
2022-07-31T14:28:17.052Z,12.29
2022-07-31T14:30:46.586Z,11.42
2022-07-31T14:33:17.794Z,10.58
2022-07-31T14:35:46.166Z,10.47
2022-07-31T14:38:26.937Z,11.67
2022-07-31T14:40:56.270Z,12.17
2022-07-31T14:43:24.371Z,11.56
2022-07-31T14:45:52.605Z,11.04
2022-07-31T14:48:22.029Z,11.95
2022-07-31T14:50:49.781Z,13.27
2022-07-31T14:53:18.129Z,13.38
2022-07-31T14:55:45.950Z,13.26
2022-07-31T14:58:13.819Z,14.47
2022-07-31T15:00:42.466Z,14.60
2022-07-31T15:03:10.270Z,13.77
2022-07-31T15:06:40.121Z,12.64
2022-07-31T15:08:27.746Z,12.92
2022-07-31T15:10:55.577Z,13.13
2022-07-31T15:13:24.303Z,14.65
2022-07-31T15:15:52.158Z,14.75
2022-07-31T15:18:20.334Z,14.38
2022-07-31T15:20:52.885Z,15.25
2022-07-31T15:23:21.674Z,15.76
2022-07-31T15:25:50.164Z,15.59
2022-07-31T15:28:17.915Z,14.69
2022-07-31T15:30:46.018Z,14.32
2022-07-31T15:33:14.768Z,14.33
2022-07-31T15:35:42.873Z,14.06
2022-07-31T15:38:11.747Z,14.39
2022-07-31T15:40:39.692Z,15.14
2022-07-31T15:43:07.754Z,15.32
2022-07-31T15:45:35.546Z,14.91
2022-07-31T15:48:06.976Z,16.52
2022-07-31T15:50:38.235Z,15.90
2022-07-31T15:53:06.564Z,15.27
2022-07-31T15:55:34.535Z,14.83
2022-07-31T15:58:02.767Z,13.76
2022-07-31T16:00:30.551Z,13.91
2022-07-31T16:02:59.674Z,14.00
2022-07-31T16:05:36.768Z,13.70
2022-07-31T16:08:29.639Z,13.92
2022-07-31T16:10:56.019Z,14.17
2022-07-31T16:13:25.341Z,14.68
2022-07-31T16:15:53.295Z,13.81
2022-07-31T16:18:21.839Z,14.93
2022-07-31T16:20:50.123Z,15.71
2022-07-31T16:23:17.936Z,15.18
2022-07-31T16:25:45.817Z,14.83
2022-07-31T16:28:15.067Z,14.63
2022-07-31T16:30:45.659Z,14.44
2022-07-31T16:33:13.821Z,14.29
2022-07-31T16:35:41.956Z,14.72
2022-07-31T16:38:09.855Z,15.52
2022-07-31T16:40:37.668Z,15.64
2022-07-31T16:43:49.694Z,15.65
2022-07-31T16:45:56.039Z,15.51
2022-07-31T16:48:24.375Z,15.55
2022-07-31T16:50:53.481Z,15.54
2022-07-31T16:54:11.198Z,16.11
2022-07-31T16:56:14.485Z,16.56
2022-07-31T16:58:43.782Z,16.40
2022-07-31T17:01:53.752Z,16.17
2022-07-31T17:04:03.929Z,15.84
2022-07-31T17:06:37.906Z,15.37
2022-07-31T17:09:16.985Z,16.45
2022-07-31T17:11:48.460Z,17.69
2022-07-31T17:14:18.354Z,17.69
2022-07-31T17:16:48.891Z,17.47
2022-07-31T17:19:41.649Z,18.02
2022-07-31T17:22:07.596Z,18.56
2022-07-31T17:24:38.047Z,18.46
2022-07-31T17:27:08.535Z,19.28
2022-07-31T17:29:37.973Z,18.81
2022-07-31T17:32:05.927Z,20.46
2022-07-31T17:34:35.673Z,21.96
2022-07-31T17:37:04.944Z,22.93
2022-07-31T17:39:33.214Z,23.58
2022-07-31T17:42:01.444Z,24.63
2022-07-31T17:44:30.977Z,26.01
2022-07-31T17:46:59.742Z,26.28
2022-07-31T17:49:32.091Z,26.27
2022-07-31T17:52:00.462Z,26.49
2022-07-31T17:54:30.710Z,26.86
2022-07-31T17:56:59.862Z,26.98
2022-07-31T17:59:28.627Z,27.67
2022-07-31T18:02:00.445Z,27.63
2022-07-31T18:04:31.782Z,27.62
2022-07-31T18:07:01.473Z,27.51
2022-07-31T18:09:29.278Z,27.73
2022-07-31T18:11:58.069Z,28.19
2022-07-31T18:14:26.298Z,28.20
2022-07-31T18:16:55.104Z,28.33
2022-07-31T18:19:23.857Z,28.49
2022-07-31T18:21:53.460Z,29.65
2022-07-31T18:24:22.659Z,29.19
2022-07-31T18:26:51.860Z,29.21
2022-07-31T18:29:20.620Z,29.22
2022-07-31T18:31:49.115Z,29.80
2022-07-31T18:34:17.619Z,30.14
2022-07-31T18:36:45.997Z,30.50
2022-07-31T18:39:13.668Z,30.96
2022-07-31T18:41:48.316Z,31.04
2022-07-31T18:44:17.097Z,31.43
2022-07-31T18:46:48.269Z,31.96
2022-07-31T18:50:59.944Z,32.15
2022-07-31T18:52:05.615Z,32.23
2022-07-31T18:54:33.715Z,32.53
2022-07-31T18:57:04.269Z,32.84
2022-07-31T18:59:32.307Z,32.97
2022-07-31T19:02:00.754Z,33.28
2022-07-31T19:04:29.107Z,33.88
2022-07-31T19:06:56.873Z,33.79
2022-07-31T19:09:25.412Z,34.12
2022-07-31T19:11:58.556Z,34.92
2022-07-31T19:14:31.479Z,34.91
2022-07-31T19:17:00.660Z,34.83
2022-07-31T19:19:30.403Z,35.37
2022-07-31T19:22:16.770Z,35.71
2022-07-31T19:24:44.993Z,35.94
2022-07-31T19:27:13.269Z,35.66
2022-07-31T19:29:41.608Z,35.77
2022-07-31T19:32:09.454Z,35.89
2022-07-31T19:34:37.908Z,35.60
2022-07-31T19:37:05.908Z,35.27
2022-07-31T19:39:38.301Z,35.53
2022-07-31T19:42:11.620Z,35.83
2022-07-31T19:44:40.927Z,36.20
2022-07-31T19:47:09.063Z,35.52
2022-07-31T19:49:38.614Z,36.06
2022-07-31T19:52:08.845Z,36.22
2022-07-31T19:54:37.922Z,36.67
2022-07-31T19:57:06.382Z,36.95
2022-07-31T19:59:34.157Z,36.52
2022-07-31T20:02:02.050Z,36.56
2022-07-31T20:04:30.141Z,36.10
2022-07-31T20:06:58.299Z,35.90
2022-07-31T20:09:26.223Z,35.88
2022-07-31T20:11:54.673Z,35.28
2022-07-31T20:14:23.635Z,35.53
2022-07-31T20:16:51.394Z,35.43
2022-07-31T20:19:19.624Z,35.64
2022-07-31T20:21:47.371Z,36.26
2022-07-31T20:24:17.777Z,35.70
2022-07-31T20:26:46.015Z,35.77
2022-07-31T20:29:14.252Z,35.89
2022-07-31T20:31:42.300Z,35.49
2022-07-31T20:34:10.039Z,35.52
2022-07-31T20:36:39.579Z,35.52
2022-07-31T20:39:07.789Z,34.86
2022-07-31T20:41:36.548Z,35.24
2022-07-31T20:44:04.475Z,37.06
2022-07-31T20:46:33.198Z,36.60
2022-07-31T20:49:01.038Z,36.19
2022-07-31T20:51:28.839Z,37.88
2022-07-31T20:53:56.791Z,36.43
2022-07-31T20:56:25.030Z,37.29
2022-07-31T20:58:53.602Z,38.07
2022-07-31T21:01:22.076Z,37.34
2022-07-31T21:03:49.985Z,37.71
2022-07-31T21:06:19.288Z,37.99
2022-07-31T21:08:47.786Z,37.88
2022-07-31T21:11:16.206Z,37.63
2022-07-31T21:13:45.402Z,37.22
2022-07-31T21:16:13.861Z,37.35
2022-07-31T21:18:43.443Z,37.43
2022-07-31T21:21:12.382Z,37.52
2022-07-31T21:23:40.132Z,36.88
2022-07-31T21:26:08.759Z,37.38
2022-07-31T21:28:37.001Z,38.45
2022-07-31T21:31:05.448Z,37.07
2022-07-31T21:33:33.972Z,36.86
2022-07-31T21:36:02.478Z,36.70
2022-07-31T21:38:30.872Z,36.86
2022-07-31T21:40:58.837Z,36.84
2022-07-31T21:43:30.495Z,37.03
2022-07-31T21:46:09.267Z,37.07
2022-07-31T21:48:39.116Z,36.94
2022-07-31T21:51:07.378Z,37.83
2022-07-31T21:53:35.757Z,37.44
2022-07-31T21:56:03.981Z,37.16
2022-07-31T21:58:31.823Z,37.58
2022-07-31T22:00:59.590Z,37.88
2022-07-31T22:03:27.513Z,39.10
2022-07-31T22:06:14.257Z,38.63
2022-07-31T22:08:42.836Z,38.72
2022-07-31T22:11:10.634Z,39.46
2022-07-31T22:13:38.502Z,39.48
2022-07-31T22:16:07.080Z,39.14
2022-07-31T22:18:36.149Z,39.03
2022-07-31T22:21:07.491Z,39.34
2022-07-31T22:23:36.593Z,38.33
2022-07-31T22:26:04.860Z,38.34
2022-07-31T22:28:33.485Z,38.24
2022-07-31T22:31:02.111Z,38.21
2022-07-31T22:33:30.134Z,38.73
2022-07-31T22:36:02.713Z,38.77
2022-07-31T22:38:30.914Z,40.25
2022-07-31T22:40:59.973Z,39.54
2022-07-31T22:44:14.094Z,40.05
2022-07-31T22:46:17.340Z,40.34
2022-07-31T22:48:46.070Z,40.33
2022-07-31T22:51:14.803Z,40.33
2022-07-31T22:53:44.476Z,40.01
2022-07-31T22:56:18.268Z,40.82
2022-07-31T22:58:46.833Z,40.46
2022-07-31T23:01:14.992Z,40.73
2022-07-31T23:03:42.799Z,40.58
2022-07-31T23:06:30.084Z,40.31
2022-07-31T23:08:59.175Z,39.91
2022-07-31T23:11:27.782Z,40.12
2022-07-31T23:13:55.808Z,40.01
2022-07-31T23:16:23.611Z,40.07
2022-07-31T23:18:52.181Z,39.64
2022-07-31T23:21:19.997Z,39.39
2022-07-31T23:23:49.628Z,39.78
2022-07-31T23:26:19.873Z,40.00
2022-07-31T23:28:48.186Z,39.87
2022-07-31T23:31:16.345Z,39.53
2022-07-31T23:33:45.008Z,39.11
2022-07-31T23:36:14.485Z,38.77
2022-07-31T23:38:43.740Z,38.98
2022-07-31T23:41:12.521Z,39.34
2022-07-31T23:43:40.712Z,39.21
2022-07-31T23:46:16.119Z,39.07
2022-07-31T23:48:45.148Z,39.30
2022-07-31T23:51:12.868Z,39.40
2022-07-31T23:53:41.209Z,39.75
2022-07-31T23:56:13.211Z,39.94
2022-07-31T23:58:47.643Z,40.16
